Otisville, Minnesota
Current Conditions -  °F | °C
As of 5:35 PM on Saturday 25 Oct 2014 (Local Time) from KOEO Reporting Station
Clear Clear  
Wind Chill: 59°   Ceiling: Unl
Heat Index: 59°   Visibility: 10mi
Dew Point: 26°   Wind: 8mph
Humidity: 28%   Direction: 290°WNW
Pressure: 30.04"   Gusts: NA
Location:  45.2742°N, 92.8215°W
Report Text: KOEO 252235Z AUTO 29007KT 10SM CLR 15/M03 A3004 RMK AO2 T01521034
Loading
Personal Weather Stations






























Interactive Weather Map
Tropical Storm Tracking
New forecast layout! Learn more

10-Day Weather Forecast

Advertisements
Track Severe Weather on mobile